createdAt,value
2022-10-23T00:00:51.737Z,100
2022-10-23T00:02:06.027Z,100
2022-10-23T00:03:20.433Z,100
2022-10-23T00:04:34.748Z,100
2022-10-23T00:05:49.046Z,100
2022-10-23T00:07:03.376Z,100
2022-10-23T00:08:17.781Z,100
2022-10-23T00:09:32.121Z,100
2022-10-23T00:10:45.467Z,100
2022-10-23T00:11:59.746Z,100
2022-10-23T00:14:28.486Z,100
2022-10-23T00:15:42.760Z,100
2022-10-23T00:16:57.048Z,100
2022-10-23T00:19:25.786Z,100
2022-10-23T00:20:40.065Z,100
2022-10-23T00:21:54.335Z,100
2022-10-23T00:23:08.735Z,100
2022-10-23T00:24:23.077Z,100
2022-10-23T00:25:37.356Z,100
2022-10-23T00:26:51.629Z,100
2022-10-23T00:28:06.041Z,100
2022-10-23T00:29:20.358Z,100
2022-10-23T00:30:34.650Z,100
2022-10-23T00:31:48.919Z,100
2022-10-23T00:33:03.326Z,100
2022-10-23T00:34:17.656Z,100
2022-10-23T00:35:31.929Z,100
2022-10-23T00:36:46.220Z,100
2022-10-23T00:38:00.615Z,100
2022-10-23T00:39:14.951Z,100
2022-10-23T00:40:29.232Z,100
2022-10-23T00:41:43.574Z,100
2022-10-23T00:42:57.969Z,100
2022-10-23T00:44:12.311Z,100
2022-10-23T00:45:26.647Z,100
2022-10-23T00:46:39.994Z,100
2022-10-23T00:47:54.407Z,100
2022-10-23T00:49:08.730Z,100
2022-10-23T00:50:23.006Z,100
2022-10-23T00:51:37.280Z,100
2022-10-23T00:52:51.704Z,100
2022-10-23T00:54:06.023Z,100
2022-10-23T00:55:20.302Z,100
2022-10-23T00:56:34.583Z,100
2022-10-23T00:57:48.981Z,100
2022-10-23T00:59:03.318Z,100
2022-10-23T01:00:17.585Z,100
2022-10-23T01:01:31.874Z,100
2022-10-23T01:02:46.287Z,100
2022-10-23T01:04:00.593Z,100
2022-10-23T01:05:14.891Z,100
2022-10-23T01:06:29.171Z,100
2022-10-23T01:07:43.571Z,100
2022-10-23T01:08:57.900Z,100
2022-10-23T01:10:12.184Z,100
2022-10-23T01:11:26.456Z,100
2022-10-23T01:12:40.866Z,100
2022-10-23T01:13:55.178Z,100
2022-10-23T01:15:09.472Z,100
2022-10-23T01:16:23.741Z,100
2022-10-23T01:17:38.207Z,100
2022-10-23T01:18:52.544Z,100
2022-10-23T01:20:06.980Z,100
2022-10-23T01:21:21.301Z,100
2022-10-23T01:22:35.572Z,100
2022-10-23T01:23:49.981Z,100
2022-10-23T01:25:04.302Z,100
2022-10-23T01:26:18.596Z,100
2022-10-23T01:27:32.871Z,100
2022-10-23T01:28:47.270Z,100
2022-10-23T01:30:01.592Z,100
2022-10-23T01:31:15.888Z,100
2022-10-23T01:32:30.151Z,100
2022-10-23T01:33:44.567Z,100
2022-10-23T01:34:58.888Z,100
2022-10-23T01:36:13.166Z,100
2022-10-23T01:37:27.456Z,100
2022-10-23T01:38:41.858Z,100
2022-10-23T01:39:56.188Z,100
2022-10-23T01:41:10.461Z,100
2022-10-23T01:43:39.144Z,100
2022-10-23T01:44:53.475Z,100
2022-10-23T01:46:07.752Z,100
2022-10-23T01:47:22.029Z,100
2022-10-23T01:48:36.434Z,100
2022-10-23T01:49:50.772Z,100
2022-10-23T01:51:05.096Z,100
2022-10-23T01:52:18.495Z,100
2022-10-23T01:53:32.829Z,100
2022-10-23T01:54:46.194Z,100
2022-10-23T01:56:00.474Z,100
2022-10-23T01:57:14.868Z,100
2022-10-23T01:58:29.194Z,100
2022-10-23T01:59:43.488Z,100
2022-10-23T02:00:57.759Z,100
2022-10-23T02:02:12.168Z,100
2022-10-23T02:03:26.501Z,100
2022-10-23T02:04:40.768Z,100
2022-10-23T02:05:55.042Z,100
2022-10-23T02:07:09.462Z,100
2022-10-23T02:08:23.774Z,100
2022-10-23T02:09:38.069Z,100
2022-10-23T02:10:52.348Z,100
2022-10-23T02:12:06.749Z,100
2022-10-23T02:13:21.083Z,100
2022-10-23T02:14:35.351Z,100
2022-10-23T02:15:49.632Z,100
2022-10-23T02:17:04.043Z,100
2022-10-23T02:18:18.370Z,100
2022-10-23T02:19:32.654Z,100
2022-10-23T02:20:46.934Z,100
2022-10-23T02:22:01.334Z,100
2022-10-23T02:23:15.650Z,100
2022-10-23T02:24:29.938Z,100
2022-10-23T02:25:44.282Z,100
2022-10-23T02:26:58.688Z,100
2022-10-23T02:28:13.024Z,100
2022-10-23T02:29:26.377Z,100
2022-10-23T02:30:40.662Z,100
2022-10-23T02:31:55.060Z,100
2022-10-23T02:33:09.384Z,100
2022-10-23T02:34:23.661Z,100
2022-10-23T02:35:37.954Z,100
2022-10-23T02:36:52.343Z,100
2022-10-23T02:38:06.683Z,100
2022-10-23T02:39:20.954Z,100
2022-10-23T02:40:35.244Z,100
2022-10-23T02:41:49.653Z,100
2022-10-23T02:43:03.970Z,100
2022-10-23T02:44:18.237Z,100
2022-10-23T02:45:32.520Z,100
2022-10-23T02:46:46.939Z,100
2022-10-23T02:48:01.265Z,100
2022-10-23T02:49:15.541Z,100
2022-10-23T02:50:29.819Z,100
2022-10-23T02:51:44.221Z,100
2022-10-23T02:52:58.540Z,100
2022-10-23T02:54:12.835Z,100
2022-10-23T02:55:27.104Z,100
2022-10-23T02:56:41.513Z,100
2022-10-23T02:57:55.850Z,100
2022-10-23T02:59:10.114Z,100
2022-10-23T03:00:24.453Z,100
2022-10-23T03:01:38.874Z,100
2022-10-23T03:02:53.214Z,100
2022-10-23T03:05:20.837Z,100
2022-10-23T03:06:35.237Z,100
2022-10-23T03:07:49.562Z,100
2022-10-23T03:09:03.841Z,100
2022-10-23T03:10:18.127Z,100
2022-10-23T03:11:32.535Z,100
2022-10-23T03:12:46.848Z,100
2022-10-23T03:14:01.131Z,100
2022-10-23T03:15:15.413Z,100
2022-10-23T03:16:29.818Z,100
2022-10-23T03:17:44.155Z,100
2022-10-23T03:18:58.428Z,100
2022-10-23T03:20:12.708Z,100
2022-10-23T03:21:27.115Z,100
2022-10-23T03:23:55.711Z,100
2022-10-23T03:25:09.995Z,100
2022-10-23T03:26:24.413Z,100
2022-10-23T03:27:38.729Z,100
2022-10-23T03:28:53.023Z,100
2022-10-23T03:30:07.302Z,100
2022-10-23T03:31:21.697Z,100
2022-10-23T03:32:36.019Z,100
2022-10-23T03:33:50.301Z,100
2022-10-23T03:35:04.643Z,100
2022-10-23T03:36:19.044Z,100
2022-10-23T03:37:33.381Z,100
2022-10-23T03:38:46.736Z,100
2022-10-23T03:40:01.024Z,100
2022-10-23T03:41:15.433Z,100
2022-10-23T03:42:29.742Z,100
2022-10-23T03:43:44.033Z,100
2022-10-23T03:44:58.316Z,100
2022-10-23T03:46:12.710Z,100
2022-10-23T03:47:27.036Z,100
2022-10-23T03:48:41.322Z,100
2022-10-23T03:49:55.601Z,100
2022-10-23T03:51:10.002Z,100
2022-10-23T03:52:24.341Z,100
2022-10-23T03:53:38.621Z,100
2022-10-23T03:54:52.897Z,100
2022-10-23T03:56:07.295Z,100
2022-10-23T03:57:21.618Z,100
2022-10-23T03:58:35.905Z,100
2022-10-23T03:59:50.192Z,100
2022-10-23T04:01:04.585Z,100
2022-10-23T04:02:18.911Z,100
2022-10-23T04:03:33.185Z,100
2022-10-23T04:04:47.472Z,100
2022-10-23T04:06:01.885Z,100
2022-10-23T04:07:16.199Z,100
2022-10-23T04:08:30.484Z,100
2022-10-23T04:09:44.818Z,100
2022-10-23T04:10:59.222Z,100
2022-10-23T04:12:13.564Z,100
2022-10-23T04:13:26.909Z,100
2022-10-23T04:14:41.201Z,100
2022-10-23T04:15:55.600Z,100
2022-10-23T04:17:09.940Z,100
2022-10-23T04:18:24.205Z,100
2022-10-23T04:19:38.491Z,100
2022-10-23T04:20:52.896Z,100
2022-10-23T04:22:07.219Z,100
2022-10-23T04:23:21.503Z,100
2022-10-23T04:24:35.776Z,100
2022-10-23T04:25:50.185Z,100
2022-10-23T04:27:04.517Z,100
2022-10-23T04:28:18.788Z,100
2022-10-23T04:30:47.485Z,100
2022-10-23T04:32:01.809Z,100
2022-10-23T04:33:16.084Z,100
2022-10-23T04:34:30.374Z,100
2022-10-23T04:35:44.781Z,100
2022-10-23T04:36:59.098Z,100
2022-10-23T04:38:13.375Z,100
2022-10-23T04:39:27.670Z,100
2022-10-23T04:40:42.069Z,100
2022-10-23T04:41:56.399Z,100
2022-10-23T04:43:10.670Z,100
2022-10-23T04:44:25.007Z,100
2022-10-23T04:45:39.428Z,100
2022-10-23T04:46:53.747Z,100
2022-10-23T04:48:07.170Z,100
2022-10-23T04:49:21.493Z,100
2022-10-23T04:50:35.908Z,100
2022-10-23T04:51:50.247Z,100
2022-10-23T04:53:03.602Z,100
2022-10-23T04:54:17.876Z,100
2022-10-23T04:55:32.288Z,100
2022-10-23T04:56:46.611Z,100
2022-10-23T04:58:00.884Z,100
2022-10-23T04:59:15.163Z,100
2022-10-23T05:00:29.564Z,100
2022-10-23T05:01:43.903Z,100
2022-10-23T05:02:58.186Z,100
2022-10-23T05:04:12.459Z,100
2022-10-23T05:05:26.867Z,100
2022-10-23T05:06:41.194Z,100
2022-10-23T05:09:09.752Z,100
2022-10-23T05:10:24.168Z,100
2022-10-23T05:11:38.481Z,100
2022-10-23T05:12:52.768Z,100
2022-10-23T05:14:07.040Z,100
2022-10-23T05:15:21.000Z,100
2022-10-23T05:16:35.765Z,100
2022-10-23T05:17:50.045Z,100
2022-10-23T05:19:04.324Z,100
2022-10-23T05:20:18.746Z,100
2022-10-23T05:22:47.355Z,100
2022-10-23T05:24:01.641Z,100
2022-10-23T05:25:15.924Z,100
2022-10-23T05:26:30.216Z,100
2022-10-23T05:27:43.499Z,100
2022-10-23T05:28:57.743Z,100
2022-10-23T05:30:12.042Z,100
2022-10-23T05:31:26.269Z,100
2022-10-23T05:32:40.495Z,100
2022-10-23T05:33:54.820Z,100
2022-10-23T05:35:09.106Z,100
2022-10-23T05:36:23.521Z,100
2022-10-23T05:37:37.836Z,100
2022-10-23T05:38:52.074Z,100
2022-10-23T05:40:06.295Z,100
2022-10-23T05:41:20.515Z,100
2022-10-23T05:42:34.810Z,100
2022-10-23T05:43:49.057Z,100
2022-10-23T05:45:03.287Z,100
2022-10-23T05:46:17.514Z,100
2022-10-23T05:47:31.744Z,100
2022-10-23T05:48:46.034Z,100
2022-10-23T05:50:00.278Z,100
2022-10-23T05:51:14.501Z,100
2022-10-23T05:52:28.739Z,100
2022-10-23T05:53:42.954Z,100
2022-10-23T05:54:57.268Z,100
2022-10-23T05:56:11.504Z,100
2022-10-23T05:57:25.721Z,100
2022-10-23T05:58:40.013Z,100
2022-10-23T05:59:53.338Z,100
2022-10-23T06:01:07.628Z,100
2022-10-23T06:02:20.930Z,100
2022-10-23T06:03:35.157Z,100
2022-10-23T06:04:49.454Z,100
2022-10-23T06:06:03.687Z,100
2022-10-23T06:07:17.926Z,100
2022-10-23T06:08:32.148Z,100
2022-10-23T06:09:46.381Z,100
2022-10-23T06:11:00.681Z,100
2022-10-23T06:12:14.916Z,100
2022-10-23T06:13:29.140Z,100
2022-10-23T06:14:43.372Z,100
2022-10-23T06:15:57.600Z,100
2022-10-23T06:17:11.891Z,100
2022-10-23T06:18:26.139Z,100
2022-10-23T06:19:40.364Z,100
2022-10-23T06:20:54.597Z,100
2022-10-23T06:22:08.820Z,100
2022-10-23T06:23:23.113Z,100
2022-10-23T06:24:37.348Z,100
2022-10-23T06:25:51.590Z,100
2022-10-23T06:27:05.806Z,100
2022-10-23T06:28:20.036Z,100
2022-10-23T06:29:34.339Z,100
2022-10-23T06:30:48.568Z,100
2022-10-23T06:32:02.801Z,100
2022-10-23T06:33:17.097Z,100
2022-10-23T06:34:30.427Z,100
2022-10-23T06:35:44.698Z,100
2022-10-23T06:36:58.008Z,100
2022-10-23T06:38:12.222Z,100
2022-10-23T06:39:26.529Z,100
2022-10-23T06:40:40.760Z,100
2022-10-23T06:41:54.992Z,100
2022-10-23T06:43:09.213Z,100
2022-10-23T06:44:23.439Z,100
2022-10-23T06:45:37.736Z,100
2022-10-23T06:46:51.988Z,100
2022-10-23T06:49:20.449Z,100
2022-10-23T06:50:34.658Z,100
2022-10-23T06:51:48.977Z,100
2022-10-23T06:53:03.204Z,100
2022-10-23T06:54:17.433Z,100
2022-10-23T06:55:31.666Z,100
2022-10-23T06:56:45.895Z,100
2022-10-23T06:58:00.184Z,100
2022-10-23T06:59:14.437Z,100
2022-10-23T07:00:28.653Z,100
2022-10-23T07:01:42.889Z,100
2022-10-23T07:02:57.102Z,100
2022-10-23T07:04:11.407Z,100
2022-10-23T07:05:25.645Z,100
2022-10-23T07:06:39.883Z,100
2022-10-23T07:07:54.159Z,100
2022-10-23T07:09:07.469Z,100
2022-10-23T07:10:21.702Z,100
2022-10-23T07:11:35.934Z,100
2022-10-23T07:12:50.155Z,100
2022-10-23T07:14:04.376Z,100
2022-10-23T07:15:18.680Z,100
2022-10-23T07:16:32.922Z,100
2022-10-23T07:17:47.140Z,100
2022-10-23T07:19:01.382Z,100
2022-10-23T07:20:15.595Z,100
2022-10-23T07:21:29.900Z,100
2022-10-23T07:22:44.134Z,100
2022-10-23T07:23:58.365Z,100
2022-10-23T07:25:12.604Z,100
2022-10-23T07:26:26.820Z,100
2022-10-23T07:27:41.122Z,100
2022-10-23T07:28:55.357Z,100
2022-10-23T07:30:09.599Z,100
2022-10-23T07:32:38.050Z,100
2022-10-23T07:33:52.352Z,100
2022-10-23T07:35:06.586Z,100
2022-10-23T07:36:20.805Z,100
2022-10-23T07:37:35.040Z,100
2022-10-23T07:38:49.260Z,100
2022-10-23T07:40:03.618Z,100
2022-10-23T07:41:17.910Z,100
2022-10-23T07:42:31.197Z,100
2022-10-23T07:43:45.434Z,100
2022-10-23T07:44:59.740Z,100
2022-10-23T07:46:13.970Z,100
2022-10-23T07:48:42.419Z,99.8
2022-10-23T07:49:56.658Z,99.7
2022-10-23T07:51:10.945Z,99.2
2022-10-23T07:52:25.188Z,99.2
2022-10-23T07:53:39.421Z,99.2
2022-10-23T07:54:53.636Z,99.1
2022-10-23T07:56:07.867Z,98.6
2022-10-23T07:57:22.172Z,98.6
2022-10-23T07:58:36.408Z,98.6
2022-10-23T07:59:50.000Z,98.6
2022-10-23T08:01:04.856Z,98.3
2022-10-23T08:02:19.081Z,98
2022-10-23T08:03:33.396Z,97.8
2022-10-23T08:04:47.622Z,97.7
2022-10-23T08:06:01.859Z,97.7
2022-10-23T08:07:16.081Z,97.8
2022-10-23T08:08:30.307Z,97.8
2022-10-23T08:09:44.619Z,97.9
2022-10-23T08:10:58.846Z,97.3
2022-10-23T08:12:13.083Z,97.3
2022-10-23T08:13:27.357Z,97.1
2022-10-23T08:14:40.698Z,97.2
2022-10-23T08:15:54.981Z,97.3
2022-10-23T08:17:08.267Z,97.2
2022-10-23T08:18:22.496Z,97.1
2022-10-23T08:19:36.794Z,97
2022-10-23T08:20:51.050Z,96.8
2022-10-23T08:22:05.270Z,96.7
2022-10-23T08:23:19.485Z,96.7
2022-10-23T08:24:33.721Z,96.5
2022-10-23T08:25:48.011Z,97.1
2022-10-23T08:27:02.253Z,96.9
2022-10-23T08:28:16.490Z,96.8
2022-10-23T08:29:30.711Z,96.4
2022-10-23T08:30:44.945Z,96.3
2022-10-23T08:31:59.246Z,96.1
2022-10-23T08:33:13.475Z,96
2022-10-23T08:34:27.699Z,95.5
2022-10-23T08:35:41.935Z,95.2
2022-10-23T08:36:56.154Z,95.2
2022-10-23T08:38:10.454Z,95
2022-10-23T08:39:24.703Z,95.1
2022-10-23T08:40:38.932Z,95.5
2022-10-23T08:41:53.152Z,95.3
2022-10-23T08:43:07.387Z,95.5
2022-10-23T08:44:21.681Z,95.6
2022-10-23T08:45:35.913Z,96.1
2022-10-23T08:46:50.155Z,96.5
2022-10-23T08:48:04.434Z,96.7
2022-10-23T08:49:17.772Z,96.5
2022-10-23T08:50:32.058Z,96.8
2022-10-23T08:51:45.348Z,96.7
2022-10-23T08:52:59.579Z,96.6
2022-10-23T08:54:13.867Z,96.8
2022-10-23T08:56:42.339Z,96.8
2022-10-23T08:57:56.560Z,97.1
2022-10-23T08:59:10.800Z,96.9
2022-10-23T09:00:25.096Z,96.9
2022-10-23T09:01:39.333Z,96.6
2022-10-23T09:02:53.564Z,96.5
2022-10-23T09:04:07.787Z,96.6
2022-10-23T09:05:22.011Z,96.3
2022-10-23T09:06:36.316Z,95.8
2022-10-23T09:07:50.562Z,95.8
2022-10-23T09:09:04.770Z,95.3
2022-10-23T09:10:19.014Z,95
2022-10-23T09:11:33.228Z,94.6
2022-10-23T09:12:47.531Z,94.3
2022-10-23T09:14:01.771Z,94.4
2022-10-23T09:15:16.008Z,93.5
2022-10-23T09:16:30.220Z,93.4
2022-10-23T09:17:44.451Z,93.3
2022-10-23T09:18:58.746Z,93.1
2022-10-23T09:20:12.990Z,92.3
2022-10-23T09:21:27.211Z,91.8
2022-10-23T09:22:41.506Z,91.3
2022-10-23T09:23:54.809Z,90.6
2022-10-23T09:25:09.046Z,90.4
2022-10-23T09:26:23.257Z,90.8
2022-10-23T09:27:37.494Z,90
2022-10-23T09:28:51.715Z,90.1
2022-10-23T09:30:06.029Z,90.1
2022-10-23T09:31:20.252Z,90.2
2022-10-23T09:32:34.484Z,90.2
2022-10-23T09:33:48.705Z,89.8
2022-10-23T09:35:02.940Z,89.9
2022-10-23T09:37:31.481Z,89.7
2022-10-23T09:38:45.705Z,89.5
2022-10-23T09:39:59.933Z,89.5
2022-10-23T09:41:14.166Z,90
2022-10-23T09:42:28.462Z,88.9
2022-10-23T09:43:42.693Z,87.9
2022-10-23T09:44:56.928Z,87.8
2022-10-23T09:46:11.160Z,87
2022-10-23T09:47:25.376Z,84.8
2022-10-23T09:48:39.674Z,83.9
2022-10-23T09:49:53.915Z,84.8
2022-10-23T09:51:08.153Z,84.2
2022-10-23T09:52:22.369Z,82.6
2022-10-23T09:53:36.598Z,83
2022-10-23T09:54:50.962Z,82.8
2022-10-23T09:56:05.247Z,84.8
2022-10-23T09:57:18.578Z,84.5
2022-10-23T09:58:31.859Z,85.4
2022-10-23T09:59:46.100Z,85.2
2022-10-23T10:01:00.336Z,85.8
2022-10-23T10:02:14.568Z,85.6
2022-10-23T10:03:28.797Z,86.7
2022-10-23T10:04:43.087Z,85.9
2022-10-23T10:05:57.322Z,85.7
2022-10-23T10:07:11.561Z,86.5
2022-10-23T10:08:25.793Z,86.7
2022-10-23T10:09:40.000Z,86.7
2022-10-23T10:10:54.312Z,86.7
2022-10-23T10:12:08.552Z,86.9
2022-10-23T10:13:22.779Z,85.7
2022-10-23T10:15:51.225Z,86.6
2022-10-23T10:17:05.533Z,85.8
2022-10-23T10:18:19.769Z,86.1
2022-10-23T10:19:33.999Z,86.2
2022-10-23T10:20:48.227Z,86.3
2022-10-23T10:22:02.449Z,86.7
2022-10-23T10:23:16.758Z,86.5
2022-10-23T10:24:30.987Z,86.8
2022-10-23T10:25:45.218Z,86.7
2022-10-23T10:26:59.445Z,86.6
2022-10-23T10:28:13.679Z,86.6
2022-10-23T10:29:28.033Z,86.3
2022-10-23T10:30:42.316Z,86.3
2022-10-23T10:31:55.623Z,86.5
2022-10-23T10:33:09.846Z,86.7
2022-10-23T10:34:24.147Z,86.5
2022-10-23T10:35:38.386Z,86.3
2022-10-23T10:36:52.615Z,86.3
2022-10-23T10:38:06.842Z,86
2022-10-23T10:39:21.062Z,87.5
2022-10-23T10:40:35.357Z,87.2
2022-10-23T10:41:49.602Z,84.4
2022-10-23T10:43:03.826Z,85.2
2022-10-23T10:44:18.043Z,84.5
2022-10-23T10:45:32.280Z,88.7
2022-10-23T10:46:46.580Z,82.2
2022-10-23T10:48:00.825Z,83.8
2022-10-23T10:49:15.038Z,81.7
2022-10-23T10:50:29.279Z,83.8
2022-10-23T10:51:43.495Z,78.5
2022-10-23T10:52:57.807Z,78.3
2022-10-23T10:54:12.051Z,78.3
2022-10-23T10:55:26.269Z,77
2022-10-23T10:56:40.483Z,76.4
2022-10-23T10:57:54.716Z,75.3
2022-10-23T10:59:09.018Z,75.4
2022-10-23T11:00:23.270Z,75
2022-10-23T11:01:37.498Z,74.9
2022-10-23T11:02:51.765Z,76.3
2022-10-23T11:04:05.110Z,78.5
2022-10-23T11:05:19.393Z,78
2022-10-23T11:06:32.684Z,77.7
2022-10-23T11:07:46.918Z,76.8
2022-10-23T11:09:01.206Z,78.3
2022-10-23T11:10:15.462Z,78.9
2022-10-23T11:11:29.679Z,78.9
2022-10-23T11:12:43.895Z,79.6
2022-10-23T11:13:58.128Z,80.5
2022-10-23T11:15:12.429Z,80.8
2022-10-23T11:16:26.669Z,81.1
2022-10-23T11:17:40.902Z,81.6
2022-10-23T11:18:55.135Z,80.7
2022-10-23T11:20:09.349Z,81
2022-10-23T11:21:23.655Z,81.5
2022-10-23T11:22:37.904Z,81.5
2022-10-23T11:23:52.121Z,81.4
2022-10-23T11:25:06.340Z,81.7
2022-10-23T11:26:20.565Z,82.2
2022-10-23T11:27:34.866Z,82.1
2022-10-23T11:28:49.113Z,82.5
2022-10-23T11:30:03.332Z,82.4
2022-10-23T11:31:17.568Z,82.1
2022-10-23T11:32:31.000Z,82.4
2022-10-23T11:33:46.096Z,81.9
2022-10-23T11:35:00.339Z,82.2
2022-10-23T11:36:14.551Z,81.8
2022-10-23T11:37:28.841Z,82.2
2022-10-23T11:38:42.180Z,82.1
2022-10-23T11:39:56.455Z,82.8
2022-10-23T11:41:09.752Z,82.7
2022-10-23T11:42:23.982Z,82.2
2022-10-23T11:43:38.286Z,82.2
2022-10-23T11:44:52.527Z,82.9
2022-10-23T11:46:06.758Z,83.2
2022-10-23T11:47:20.979Z,82.6
2022-10-23T11:48:35.195Z,83.3
2022-10-23T11:49:49.496Z,83.2
2022-10-23T11:51:03.735Z,83.3
2022-10-23T11:52:17.966Z,83.6
2022-10-23T11:53:32.185Z,83.4
2022-10-23T11:54:46.424Z,83
2022-10-23T11:56:00.721Z,83.6
2022-10-23T11:57:14.958Z,84.7
2022-10-23T11:58:29.196Z,83.3
2022-10-23T11:59:43.419Z,84.6
2022-10-23T12:00:57.647Z,84.1
2022-10-23T12:02:11.944Z,83.6
2022-10-23T12:03:26.178Z,83.9
2022-10-23T12:04:40.401Z,84.5
2022-10-23T12:05:54.640Z,84.5
2022-10-23T12:07:08.869Z,84.5
2022-10-23T12:08:23.171Z,85
2022-10-23T12:09:37.402Z,85.2
2022-10-23T12:10:51.629Z,85.7
2022-10-23T12:12:05.910Z,85.6
2022-10-23T12:13:19.209Z,85.4
2022-10-23T12:14:33.455Z,85.5
2022-10-23T12:15:47.680Z,85.4
2022-10-23T12:17:01.904Z,85.3
2022-10-23T12:18:16.129Z,84.7
2022-10-23T12:19:30.435Z,84.9
2022-10-23T12:20:44.675Z,84.5
2022-10-23T12:21:58.902Z,84.6
2022-10-23T12:23:13.115Z,84.4
2022-10-23T12:24:27.358Z,84.6
2022-10-23T12:25:41.659Z,83.8
2022-10-23T12:26:55.891Z,83.8
2022-10-23T12:28:10.116Z,84.3
2022-10-23T12:29:24.348Z,84.3
2022-10-23T12:30:38.562Z,84.3
2022-10-23T12:31:52.867Z,83.6
2022-10-23T12:33:07.116Z,83.8
2022-10-23T12:34:21.334Z,84
2022-10-23T12:35:35.572Z,83.6
2022-10-23T12:36:49.786Z,83.5
2022-10-23T12:38:04.084Z,83.9
2022-10-23T12:39:18.345Z,83.1
2022-10-23T12:40:32.555Z,83.9
2022-10-23T12:41:46.789Z,83.4
2022-10-23T12:43:01.013Z,82.5
2022-10-23T12:44:15.371Z,82.7
2022-10-23T12:45:29.652Z,82.3
2022-10-23T12:46:42.958Z,83.2
2022-10-23T12:47:57.186Z,82.3
2022-10-23T12:49:11.477Z,82
2022-10-23T12:50:25.721Z,82
2022-10-23T12:51:39.942Z,81.6
2022-10-23T12:52:54.175Z,81.8
2022-10-23T12:54:08.401Z,82
2022-10-23T12:55:22.688Z,81.5
2022-10-23T12:56:36.943Z,82.3
2022-10-23T12:57:51.168Z,81.5
2022-10-23T12:59:05.400Z,81.3
2022-10-23T13:00:19.620Z,81
2022-10-23T13:01:33.922Z,81.4
2022-10-23T13:02:48.151Z,81.3
2022-10-23T13:04:02.394Z,80.5
2022-10-23T13:05:16.603Z,80.1
2022-10-23T13:06:30.832Z,79.6
2022-10-23T13:07:45.141Z,79.7
2022-10-23T13:08:59.371Z,79.6
2022-10-23T13:10:13.597Z,79.6
2022-10-23T13:11:27.826Z,80.3
2022-10-23T13:12:42.065Z,80.7
2022-10-23T13:13:56.359Z,80.5
2022-10-23T13:15:10.609Z,80.1
2022-10-23T13:16:24.819Z,80.3
2022-10-23T13:17:39.105Z,80.3
2022-10-23T13:18:52.443Z,80.6
2022-10-23T13:20:06.729Z,80.6
2022-10-23T13:21:20.028Z,81
2022-10-23T13:22:34.240Z,80.7
2022-10-23T13:23:48.549Z,80
2022-10-23T13:25:02.786Z,79.3
2022-10-23T13:26:17.024Z,79.3
2022-10-23T13:27:31.235Z,78.9
2022-10-23T13:28:45.464Z,79
2022-10-23T13:29:59.766Z,78.9
2022-10-23T13:31:14.000Z,79
2022-10-23T13:32:28.234Z,79.3
2022-10-23T13:33:42.458Z,78.3
2022-10-23T13:34:56.683Z,78.5
2022-10-23T13:36:11.019Z,78.1
2022-10-23T13:37:25.224Z,78.8
2022-10-23T13:38:39.459Z,78.6
2022-10-23T13:39:53.684Z,78.6
2022-10-23T13:41:07.911Z,78.3
2022-10-23T13:42:22.201Z,78.9
2022-10-23T13:43:36.449Z,79.4
2022-10-23T13:44:50.678Z,78.1
2022-10-23T13:46:04.907Z,77.4
2022-10-23T13:47:19.133Z,77.1
2022-10-23T13:48:33.427Z,77.4
2022-10-23T13:49:47.674Z,76.2
2022-10-23T13:51:01.892Z,76.2
2022-10-23T13:52:16.187Z,74.9
2022-10-23T13:53:29.523Z,76.3
2022-10-23T13:54:43.802Z,75.9
2022-10-23T13:55:57.082Z,75.9
2022-10-23T13:57:11.318Z,75.3
2022-10-23T13:58:25.621Z,76.1
2022-10-23T13:59:39.851Z,76.6
2022-10-23T14:00:54.082Z,76.1
2022-10-23T14:02:08.321Z,75.9
2022-10-23T14:03:22.540Z,77
2022-10-23T14:04:36.841Z,76.5
2022-10-23T14:05:51.079Z,76.3
2022-10-23T14:07:05.314Z,76.6
2022-10-23T14:08:19.538Z,76.6
2022-10-23T14:09:33.759Z,75.9
2022-10-23T14:10:48.061Z,76.6
2022-10-23T14:12:02.302Z,76.5
2022-10-23T14:13:16.531Z,76.5
2022-10-23T14:14:30.758Z,76.8
2022-10-23T14:15:44.982Z,76.9
2022-10-23T14:16:59.280Z,76.6
2022-10-23T14:18:13.512Z,77.1
2022-10-23T14:19:27.742Z,76.8
2022-10-23T14:20:41.965Z,76.7
2022-10-23T14:21:56.194Z,76.4
2022-10-23T14:23:10.501Z,76.7
2022-10-23T14:24:24.731Z,76.5
2022-10-23T14:25:38.963Z,77.4
2022-10-23T14:26:53.241Z,77.5
2022-10-23T14:28:06.545Z,78.2
2022-10-23T14:29:20.795Z,78.5
2022-10-23T14:30:35.009Z,79.2
2022-10-23T14:31:49.248Z,78.8
2022-10-23T14:33:03.459Z,78.6
2022-10-23T14:34:17.000Z,78.9
2022-10-23T14:35:31.998Z,78.5
2022-10-23T14:36:46.233Z,79
2022-10-23T14:38:00.458Z,79.3
2022-10-23T14:39:14.677Z,78.5
2022-10-23T14:40:28.976Z,78.4
2022-10-23T14:41:43.220Z,79.1
2022-10-23T14:42:57.443Z,78.6
2022-10-23T14:44:11.684Z,79.2
2022-10-23T14:45:25.913Z,79.4
2022-10-23T14:46:40.201Z,79.9
2022-10-23T14:47:54.450Z,79.6
2022-10-23T14:49:08.665Z,80
2022-10-23T14:50:22.905Z,79.9
2022-10-23T14:51:37.120Z,79.5
2022-10-23T14:52:51.422Z,79.5
2022-10-23T14:54:05.658Z,79.3
2022-10-23T14:55:19.896Z,79.8
2022-10-23T14:56:34.115Z,80.8
2022-10-23T14:57:48.348Z,82.3
2022-10-23T14:59:02.707Z,82.8
2022-10-23T15:00:16.986Z,82.9
2022-10-23T15:01:31.264Z,83.3
2022-10-23T15:02:44.580Z,83.7
2022-10-23T15:03:58.868Z,84.6
2022-10-23T15:05:13.103Z,84.2
2022-10-23T15:06:27.333Z,84.5
2022-10-23T15:07:41.559Z,85.3
2022-10-23T15:08:55.792Z,83.7
2022-10-23T15:10:10.091Z,83.6
2022-10-23T15:12:38.561Z,83.2
2022-10-23T15:13:52.779Z,82.8
2022-10-23T15:15:07.012Z,83
2022-10-23T15:16:21.315Z,82.8
2022-10-23T15:17:35.554Z,83.1
2022-10-23T15:18:49.771Z,83.6
2022-10-23T15:20:04.012Z,83
2022-10-23T15:21:18.227Z,83
2022-10-23T15:22:32.535Z,82.5
2022-10-23T15:23:46.779Z,82.7
2022-10-23T15:25:00.997Z,83.1
2022-10-23T15:26:15.230Z,84
2022-10-23T15:27:29.450Z,84.6
2022-10-23T15:28:43.747Z,85.6
2022-10-23T15:29:57.997Z,84.7
2022-10-23T15:31:12.225Z,84.5
2022-10-23T15:32:26.434Z,85
2022-10-23T15:33:40.717Z,85
2022-10-23T15:34:55.030Z,84.5
2022-10-23T15:36:09.315Z,84.7
2022-10-23T15:37:22.607Z,85.6
2022-10-23T15:38:36.835Z,85.4
2022-10-23T15:39:51.123Z,85.4
2022-10-23T15:41:05.373Z,85
2022-10-23T15:42:19.589Z,85.5
2022-10-23T15:43:33.820Z,84.8
2022-10-23T15:44:48.052Z,84.8
2022-10-23T15:46:02.340Z,84.3
2022-10-23T15:47:16.585Z,84.6
2022-10-23T15:48:30.818Z,84.8
2022-10-23T15:49:45.034Z,83.9
2022-10-23T15:50:59.271Z,83.9
2022-10-23T15:52:13.578Z,84.5
2022-10-23T15:53:27.821Z,83.8
2022-10-23T15:54:42.031Z,83.9
2022-10-23T15:55:56.272Z,84.2
2022-10-23T15:57:10.497Z,84.5
2022-10-23T15:58:24.793Z,84.8
2022-10-23T15:59:39.029Z,84.9
2022-10-23T16:00:53.250Z,85.1
2022-10-23T16:02:07.491Z,84.8
2022-10-23T16:03:21.705Z,85.3
2022-10-23T16:04:36.003Z,85.3
2022-10-23T16:05:50.241Z,85.9
2022-10-23T16:07:04.485Z,86.1
2022-10-23T16:08:18.762Z,87
2022-10-23T16:09:32.054Z,86.8
2022-10-23T16:10:46.298Z,87
2022-10-23T16:12:00.514Z,87.4
2022-10-23T16:13:14.746Z,86.8
2022-10-23T16:14:28.970Z,86.7
2022-10-23T16:15:43.283Z,86.7
2022-10-23T16:16:57.510Z,86.1
2022-10-23T16:18:11.751Z,86.2
2022-10-23T16:19:25.970Z,85.9
2022-10-23T16:20:40.198Z,85.8
2022-10-23T16:21:54.487Z,86.1
2022-10-23T16:24:22.966Z,86.1
2022-10-23T16:25:37.194Z,87.8
2022-10-23T16:26:51.425Z,90.2
2022-10-23T16:28:05.718Z,91.6
2022-10-23T16:29:19.951Z,91.8
2022-10-23T16:30:34.173Z,93.6
2022-10-23T16:31:48.411Z,94.2
2022-10-23T16:33:02.641Z,94.4
2022-10-23T16:34:16.942Z,95.2
2022-10-23T16:35:31.177Z,96.3
2022-10-23T16:36:45.396Z,97.2
2022-10-23T16:37:59.674Z,98.1
2022-10-23T16:39:13.967Z,97.9
2022-10-23T16:40:28.435Z,98.3
2022-10-23T16:41:42.770Z,98.5
2022-10-23T16:42:56.070Z,98.4
2022-10-23T16:44:10.290Z,97.3
2022-10-23T16:45:24.593Z,97.5
2022-10-23T16:46:38.836Z,97.3
2022-10-23T16:47:53.059Z,97.6
2022-10-23T16:49:07.277Z,97.7
2022-10-23T16:50:21.515Z,97.7
2022-10-23T16:51:35.816Z,98.2
2022-10-23T16:52:50.052Z,98.4
2022-10-23T16:54:04.279Z,98.3
2022-10-23T16:55:18.548Z,98.4
2022-10-23T16:56:32.843Z,98.4
2022-10-23T16:57:47.254Z,98.5
2022-10-23T16:59:01.563Z,98.7
2022-10-23T17:00:15.841Z,98.8
2022-10-23T17:01:30.181Z,98.8
2022-10-23T17:02:44.453Z,99.1
2022-10-23T17:03:58.857Z,99
2022-10-23T17:05:13.192Z,98.9
2022-10-23T17:06:27.475Z,99